createdAt,value
2018-06-30T00:01:24.830Z,12.60
2018-06-30T00:03:53.881Z,12.60
2018-06-30T00:06:23.891Z,12.60
2018-06-30T00:08:52.475Z,12.50
2018-06-30T00:11:21.131Z,12.50
2018-06-30T00:13:49.811Z,12.40
2018-06-30T00:16:18.389Z,12.40
2018-06-30T00:18:46.959Z,12.30
2018-06-30T00:21:15.580Z,12.30
2018-06-30T00:23:44.152Z,12.30
2018-06-30T00:26:12.700Z,12.30
2018-06-30T00:28:41.254Z,12.20
2018-06-30T00:31:09.828Z,12.20
2018-06-30T00:33:38.372Z,12.10
2018-06-30T00:36:07.033Z,12.10
2018-06-30T00:38:35.538Z,12.00
2018-06-30T00:41:04.144Z,12.00
2018-06-30T00:43:32.779Z,11.90
2018-06-30T00:46:01.367Z,11.90
2018-06-30T00:48:29.987Z,11.80
2018-06-30T00:50:58.636Z,11.80
2018-06-30T00:53:27.177Z,11.70
2018-06-30T00:55:55.836Z,11.70
2018-06-30T00:58:24.398Z,11.60
2018-06-30T01:00:52.969Z,11.50
2018-06-30T01:03:21.506Z,11.60
2018-06-30T01:05:50.034Z,11.50
2018-06-30T01:08:18.570Z,11.50
2018-06-30T01:10:47.226Z,11.50
2018-06-30T01:13:15.754Z,11.40
2018-06-30T01:15:44.458Z,11.40
2018-06-30T01:18:13.045Z,11.40
2018-06-30T01:23:09.811Z,11.20
2018-06-30T01:25:38.336Z,11.20
2018-06-30T01:28:07.171Z,11.20
2018-06-30T01:30:35.755Z,11.20
2018-06-30T01:33:04.297Z,11.10
2018-06-30T01:35:32.852Z,11.10
2018-06-30T01:38:01.414Z,11.00
2018-06-30T01:40:30.011Z,11.00
2018-06-30T01:42:58.669Z,11.00
2018-06-30T01:45:27.471Z,10.90
2018-06-30T01:50:24.290Z,10.90
2018-06-30T01:52:52.909Z,10.80
2018-06-30T01:55:21.457Z,10.80
2018-06-30T01:57:50.007Z,10.80
2018-06-30T02:00:18.531Z,10.70
2018-06-30T02:02:47.106Z,10.70
2018-06-30T02:05:15.607Z,10.60
2018-06-30T02:07:44.438Z,10.60
2018-06-30T02:10:13.067Z,10.50
2018-06-30T02:12:41.615Z,10.50
2018-06-30T02:15:10.127Z,10.40
2018-06-30T02:17:38.726Z,10.40
2018-06-30T02:20:07.274Z,10.30
2018-06-30T02:22:35.795Z,10.30
2018-06-30T02:25:04.328Z,10.30
2018-06-30T02:27:33.264Z,10.20
2018-06-30T02:30:01.770Z,10.20
2018-06-30T02:32:30.304Z,10.20
2018-06-30T02:34:58.841Z,10.10
2018-06-30T02:37:27.488Z,10.10
2018-06-30T02:39:56.501Z,10.10
2018-06-30T02:47:21.580Z,10.00
2018-06-30T02:49:50.115Z,10.00
2018-06-30T02:52:18.952Z,9.90
2018-06-30T02:54:47.599Z,9.90
2018-06-30T02:57:16.132Z,9.80
2018-06-30T02:59:44.682Z,9.80
2018-06-30T03:02:13.490Z,9.80
2018-06-30T03:04:42.028Z,9.80
2018-06-30T03:07:10.528Z,9.80
2018-06-30T03:09:39.242Z,9.80
2018-06-30T03:12:07.794Z,9.80
2018-06-30T03:14:36.336Z,9.80
2018-06-30T03:17:04.884Z,9.80
2018-06-30T03:19:33.421Z,9.90
2018-06-30T03:22:01.980Z,10.00
2018-06-30T03:24:30.875Z,10.00
2018-06-30T03:26:59.347Z,10.00
2018-06-30T03:29:27.854Z,10.00
2018-06-30T03:31:56.641Z,9.90
2018-06-30T03:34:25.128Z,9.90
2018-06-30T03:36:53.683Z,9.90
2018-06-30T03:39:22.267Z,9.90
2018-06-30T03:41:51.261Z,9.90
2018-06-30T03:44:20.096Z,9.80
2018-06-30T03:46:48.668Z,9.90
2018-06-30T03:49:17.214Z,9.90
2018-06-30T03:51:45.865Z,10.00
2018-06-30T03:54:14.432Z,10.00
2018-06-30T03:56:42.968Z,10.00
2018-06-30T03:59:11.563Z,10.00
2018-06-30T04:01:40.314Z,10.10
2018-06-30T04:04:09.208Z,10.20
2018-06-30T04:06:37.734Z,10.30
2018-06-30T04:09:08.956Z,10.30
2018-06-30T04:11:37.856Z,10.40
2018-06-30T04:14:06.590Z,10.50
2018-06-30T04:16:35.209Z,10.60
2018-06-30T04:19:18.572Z,10.70
2018-06-30T04:21:47.852Z,10.80
2018-06-30T04:24:16.480Z,10.90
2018-06-30T04:26:45.461Z,11.00
2018-06-30T04:29:14.500Z,11.10
2018-06-30T04:31:43.165Z,11.30
2018-06-30T04:34:11.704Z,11.40
2018-06-30T04:36:40.259Z,11.50
2018-06-30T04:39:09.952Z,11.70
2018-06-30T04:41:38.946Z,11.90
2018-06-30T04:44:07.584Z,12.00
2018-06-30T04:46:36.192Z,12.20
2018-06-30T04:49:04.737Z,12.40
2018-06-30T04:51:33.301Z,12.50
2018-06-30T04:54:01.807Z,12.70
2018-06-30T04:56:30.957Z,12.80
2018-06-30T04:58:59.507Z,13.00
2018-06-30T05:01:28.498Z,13.10
2018-06-30T05:03:57.112Z,13.30
2018-06-30T05:06:25.722Z,13.40
2018-06-30T05:08:54.332Z,13.60
2018-06-30T05:11:22.926Z,13.80
2018-06-30T05:13:51.674Z,13.80
2018-06-30T05:16:20.490Z,13.90
2018-06-30T05:18:49.072Z,14.00
2018-06-30T05:21:18.011Z,14.10
2018-06-30T05:23:46.629Z,14.20
2018-06-30T05:26:15.351Z,14.40
2018-06-30T05:28:43.939Z,14.40
2018-06-30T05:31:12.478Z,14.50
2018-06-30T05:33:41.161Z,14.60
2018-06-30T05:36:09.645Z,14.70
2018-06-30T05:38:38.269Z,14.80
2018-06-30T05:41:06.952Z,14.90
2018-06-30T05:43:35.542Z,14.90
2018-06-30T05:46:04.225Z,15.00
2018-06-30T05:48:32.843Z,15.20
2018-06-30T05:51:01.494Z,15.30
2018-06-30T05:53:30.108Z,15.30
2018-06-30T05:55:58.719Z,15.30
2018-06-30T05:58:27.420Z,15.40
2018-06-30T06:00:56.034Z,15.30
2018-06-30T06:03:24.682Z,15.40
2018-06-30T06:05:53.319Z,15.50
2018-06-30T06:08:21.928Z,15.50
2018-06-30T06:10:50.522Z,15.50
2018-06-30T06:13:19.156Z,15.50
2018-06-30T06:15:47.752Z,15.60
2018-06-30T06:18:16.342Z,15.70
2018-06-30T06:20:44.947Z,15.70
2018-06-30T06:23:13.457Z,15.70
2018-06-30T06:25:41.894Z,15.70
2018-06-30T06:28:10.556Z,15.70
2018-06-30T06:30:39.337Z,15.80
2018-06-30T06:33:08.460Z,15.80
2018-06-30T06:35:36.946Z,15.90
2018-06-30T06:38:05.791Z,16.00
2018-06-30T06:40:34.519Z,16.10
2018-06-30T06:43:03.001Z,16.10
2018-06-30T06:45:31.567Z,16.10
2018-06-30T06:48:00.121Z,16.20
2018-06-30T06:50:28.703Z,16.40
2018-06-30T06:52:57.338Z,16.50
2018-06-30T06:55:26.356Z,16.50
2018-06-30T06:57:54.860Z,16.50
2018-06-30T07:00:23.477Z,16.70
2018-06-30T07:02:52.080Z,16.80
2018-06-30T07:05:20.617Z,16.80
2018-06-30T07:07:49.131Z,16.90
2018-06-30T07:10:24.380Z,16.90
2018-06-30T07:12:52.890Z,17.00
2018-06-30T07:15:21.388Z,17.30
2018-06-30T07:17:49.967Z,17.30
2018-06-30T07:20:18.567Z,17.50
2018-06-30T07:22:47.096Z,17.80
2018-06-30T07:25:15.703Z,17.80
2018-06-30T07:27:44.331Z,18.10
2018-06-30T07:30:12.922Z,18.30
2018-06-30T07:32:41.467Z,18.40
2018-06-30T07:35:09.973Z,18.60
2018-06-30T07:37:38.523Z,18.90
2018-06-30T07:40:07.067Z,19.00
2018-06-30T07:42:35.847Z,19.40
2018-06-30T07:45:04.668Z,20.00
2018-06-30T07:47:33.195Z,20.10
2018-06-30T07:50:01.854Z,20.10
2018-06-30T07:52:30.361Z,20.10
2018-06-30T07:54:59.101Z,20.20
2018-06-30T07:57:27.674Z,20.70
2018-06-30T07:59:56.324Z,20.70
2018-06-30T08:02:24.848Z,20.30
2018-06-30T08:04:53.380Z,20.70
2018-06-30T08:07:21.910Z,21.10
2018-06-30T08:09:50.652Z,20.80
2018-06-30T08:12:19.481Z,20.30
2018-06-30T08:14:48.052Z,20.60
2018-06-30T08:17:16.640Z,21.00
2018-06-30T08:19:45.252Z,21.50
2018-06-30T08:22:13.776Z,21.60
2018-06-30T08:24:42.359Z,21.10
2018-06-30T08:27:10.938Z,21.50
2018-06-30T08:29:39.612Z,21.50
2018-06-30T08:32:08.084Z,21.10
2018-06-30T08:34:36.651Z,21.30
2018-06-30T08:37:05.276Z,21.80
2018-06-30T08:39:33.792Z,21.80
2018-06-30T08:42:02.257Z,22.20
2018-06-30T08:44:30.927Z,21.90
2018-06-30T08:46:59.374Z,21.90
2018-06-30T08:49:27.909Z,22.50
2018-06-30T08:51:56.920Z,22.40
2018-06-30T08:54:25.566Z,22.50
2018-06-30T08:56:54.111Z,23.20
2018-06-30T08:59:22.639Z,22.60
2018-06-30T09:01:51.224Z,23.20
2018-06-30T09:04:19.745Z,22.80
2018-06-30T09:06:48.278Z,23.30
2018-06-30T09:09:16.755Z,22.70
2018-06-30T09:11:45.273Z,22.80
2018-06-30T09:14:13.927Z,22.90
2018-06-30T09:16:42.444Z,22.50
2018-06-30T09:19:11.087Z,22.40
2018-06-30T09:21:39.558Z,23.10
2018-06-30T09:24:08.198Z,23.70
2018-06-30T09:26:36.741Z,23.90
2018-06-30T09:29:05.767Z,24.20
2018-06-30T09:31:34.306Z,24.40
2018-06-30T09:34:02.856Z,23.70
2018-06-30T09:36:31.406Z,23.10
2018-06-30T09:38:59.930Z,23.00
2018-06-30T09:41:28.434Z,22.40
2018-06-30T09:43:57.022Z,22.10
2018-06-30T09:46:25.923Z,22.40
2018-06-30T09:48:54.439Z,23.60
2018-06-30T09:51:22.958Z,23.40
2018-06-30T09:53:51.485Z,23.60
2018-06-30T09:56:20.031Z,23.40
2018-06-30T09:58:48.511Z,23.20
2018-06-30T10:01:17.021Z,23.30
2018-06-30T10:03:48.711Z,23.60
2018-06-30T10:06:17.306Z,24.30
2018-06-30T10:08:45.890Z,24.20
2018-06-30T10:11:14.477Z,24.20
2018-06-30T10:13:43.105Z,23.80
2018-06-30T10:16:11.705Z,23.80
2018-06-30T10:18:40.182Z,23.40
2018-06-30T10:21:08.780Z,24.20
2018-06-30T10:23:37.421Z,25.00
2018-06-30T10:26:05.942Z,24.50
2018-06-30T10:28:34.493Z,24.70
2018-06-30T10:31:02.979Z,25.50
2018-06-30T10:33:31.523Z,25.10
2018-06-30T10:36:00.003Z,26.00
2018-06-30T10:38:28.520Z,25.80
2018-06-30T10:40:57.098Z,24.90
2018-06-30T10:43:25.585Z,25.20
2018-06-30T10:45:54.055Z,24.90
2018-06-30T10:48:22.619Z,24.80
2018-06-30T10:50:51.191Z,24.60
2018-06-30T10:53:19.659Z,24.80
2018-06-30T10:55:48.175Z,25.10
2018-06-30T10:58:16.760Z,24.70
2018-06-30T11:00:45.323Z,24.00
2018-06-30T11:03:14.060Z,23.20
2018-06-30T11:05:42.576Z,23.20
2018-06-30T11:08:11.104Z,23.10
2018-06-30T11:10:39.628Z,22.90
2018-06-30T11:13:08.297Z,23.40
2018-06-30T11:15:36.821Z,24.10
2018-06-30T11:18:05.692Z,24.70
2018-06-30T11:20:34.165Z,25.20
2018-06-30T11:23:02.660Z,25.40
2018-06-30T11:25:31.160Z,24.70
2018-06-30T11:27:59.672Z,24.20
2018-06-30T11:30:28.298Z,24.00
2018-06-30T11:32:56.861Z,23.80
2018-06-30T11:35:29.223Z,23.40
2018-06-30T11:37:57.865Z,24.00
2018-06-30T11:40:26.466Z,24.70
2018-06-30T11:42:55.167Z,24.90
2018-06-30T11:45:23.921Z,25.90
2018-06-30T11:47:52.689Z,26.20
2018-06-30T11:50:21.660Z,25.90
2018-06-30T11:52:50.293Z,25.50
2018-06-30T11:55:19.052Z,24.40
2018-06-30T11:57:48.139Z,24.80
2018-06-30T12:00:16.752Z,24.30
2018-06-30T12:02:45.614Z,23.90
2018-06-30T12:05:14.209Z,24.00
2018-06-30T12:07:42.914Z,25.30
2018-06-30T12:10:12.269Z,25.60
2018-06-30T12:12:41.047Z,25.30
2018-06-30T12:15:09.765Z,25.50
2018-06-30T12:17:38.388Z,25.50
2018-06-30T12:20:07.082Z,26.20
2018-06-30T12:22:35.713Z,25.90
2018-06-30T12:25:04.821Z,25.80
2018-06-30T12:27:33.470Z,25.10
2018-06-30T12:30:02.038Z,25.00
2018-06-30T12:34:59.035Z,24.80
2018-06-30T12:37:27.662Z,25.20
2018-06-30T12:39:56.725Z,25.20
2018-06-30T12:42:25.705Z,25.00
2018-06-30T12:44:54.379Z,24.50
2018-06-30T12:47:23.279Z,24.20
2018-06-30T12:49:53.243Z,24.10
2018-06-30T12:54:50.295Z,23.60
2018-06-30T12:57:19.377Z,23.70
2018-06-30T12:59:47.955Z,23.00
2018-06-30T13:02:16.523Z,23.10
2018-06-30T13:04:45.548Z,23.10
2018-06-30T13:07:15.398Z,23.40
2018-06-30T13:09:44.287Z,23.30
2018-06-30T13:12:13.586Z,24.00
2018-06-30T13:14:42.479Z,24.60
2018-06-30T13:17:12.136Z,24.90
2018-06-30T13:19:41.196Z,24.90
2018-06-30T13:22:10.063Z,24.90
2018-06-30T13:24:38.749Z,24.20
2018-06-30T13:27:07.386Z,24.10
2018-06-30T13:29:36.623Z,23.70
2018-06-30T13:32:05.769Z,23.70
2018-06-30T13:34:34.431Z,23.40
2018-06-30T13:37:03.017Z,23.40
2018-06-30T13:39:31.645Z,23.10
2018-06-30T13:42:00.715Z,23.00
2018-06-30T13:44:29.440Z,23.10
2018-06-30T13:46:58.693Z,23.30
2018-06-30T13:49:27.693Z,23.40
2018-06-30T13:51:56.890Z,22.90
2018-06-30T13:54:25.533Z,23.00
2018-06-30T13:56:54.786Z,23.00
2018-06-30T13:59:23.404Z,24.10
2018-06-30T14:01:52.083Z,24.40
2018-06-30T14:04:20.695Z,24.10
2018-06-30T14:06:51.688Z,24.30
2018-06-30T14:09:20.336Z,24.60
2018-06-30T14:11:49.351Z,24.70
2018-06-30T14:14:18.312Z,24.10
2018-06-30T14:16:46.949Z,24.00
2018-06-30T14:19:16.545Z,24.30
2018-06-30T14:21:45.505Z,24.80
2018-06-30T14:24:14.112Z,25.20
2018-06-30T14:26:43.114Z,25.50
2018-06-30T14:29:12.077Z,25.80
2018-06-30T14:31:41.053Z,25.00
2018-06-30T14:34:10.123Z,24.90
2018-06-30T14:36:39.182Z,25.80
2018-06-30T14:39:10.494Z,26.30
2018-06-30T14:41:41.154Z,25.40
2018-06-30T14:44:09.852Z,24.80
2018-06-30T14:46:38.516Z,24.70
2018-06-30T14:49:07.263Z,24.70
2018-06-30T14:51:36.652Z,25.20
2018-06-30T14:54:06.121Z,25.80
2018-06-30T14:56:34.751Z,25.40
2018-06-30T14:59:03.393Z,25.50
2018-06-30T15:01:33.246Z,25.00
2018-06-30T15:04:01.852Z,26.00
2018-06-30T15:06:30.474Z,26.40
2018-06-30T15:08:59.118Z,25.80
2018-06-30T15:11:27.960Z,25.10
2018-06-30T15:13:56.815Z,25.70
2018-06-30T15:16:25.589Z,25.30
2018-06-30T15:18:54.672Z,25.30
2018-06-30T15:21:26.264Z,25.30
2018-06-30T15:23:54.877Z,26.00
2018-06-30T15:26:23.589Z,26.40
2018-06-30T15:28:53.647Z,26.40
2018-06-30T15:31:22.672Z,26.30
2018-06-30T15:33:51.380Z,25.90
2018-06-30T15:36:20.098Z,25.50
2018-06-30T15:38:48.774Z,25.50
2018-06-30T15:41:17.439Z,26.30
2018-06-30T15:43:46.067Z,25.80
2018-06-30T15:46:15.298Z,25.70
2018-06-30T15:48:44.539Z,25.00
2018-06-30T15:51:13.556Z,24.60
2018-06-30T15:53:42.136Z,24.30
2018-06-30T15:56:11.205Z,24.20
2018-06-30T15:58:39.978Z,24.30
2018-06-30T16:01:09.821Z,23.70
2018-06-30T16:03:38.398Z,23.50
2018-06-30T16:06:07.201Z,23.10
2018-06-30T16:08:35.800Z,23.30
2018-06-30T16:11:04.515Z,23.20
2018-06-30T16:13:33.097Z,23.40
2018-06-30T16:16:01.740Z,23.50
2018-06-30T16:18:30.689Z,23.70
2018-06-30T16:20:59.333Z,23.50
2018-06-30T16:23:27.997Z,23.30
2018-06-30T16:25:56.683Z,23.10
2018-06-30T16:28:25.744Z,23.00
2018-06-30T16:30:55.521Z,22.70
2018-06-30T16:33:24.802Z,22.70
2018-06-30T16:35:53.444Z,22.40
2018-06-30T16:38:22.042Z,22.40
2018-06-30T16:40:50.704Z,22.40
2018-06-30T16:43:19.343Z,22.40
2018-06-30T16:45:48.351Z,22.40
2018-06-30T16:48:16.973Z,22.20
2018-06-30T16:50:45.656Z,22.00
2018-06-30T16:53:14.242Z,21.90
2018-06-30T16:55:42.772Z,21.90
2018-06-30T16:58:11.327Z,21.70
2018-06-30T17:00:39.877Z,21.50
2018-06-30T17:03:08.952Z,21.40
2018-06-30T17:05:37.946Z,21.20
2018-06-30T17:08:06.692Z,21.10
2018-06-30T17:10:35.792Z,21.10
2018-06-30T17:13:04.316Z,21.00
2018-06-30T17:15:33.275Z,21.00
2018-06-30T17:18:01.808Z,21.10
2018-06-30T17:20:30.328Z,20.90
2018-06-30T17:22:58.840Z,20.80
2018-06-30T17:25:27.365Z,20.70
2018-06-30T17:27:56.116Z,20.70
2018-06-30T17:30:24.969Z,20.70
2018-06-30T17:32:53.470Z,20.70
2018-06-30T17:35:21.942Z,20.60
2018-06-30T17:37:50.675Z,20.60
2018-06-30T17:40:19.337Z,20.60
2018-06-30T17:42:47.879Z,20.60
2018-06-30T17:45:16.485Z,20.20
2018-06-30T17:47:45.330Z,20.30
2018-06-30T17:50:13.983Z,20.30
2018-06-30T17:52:42.486Z,20.50
2018-06-30T17:55:11.093Z,20.40
2018-06-30T17:57:39.784Z,20.30
2018-06-30T18:00:08.710Z,20.20
2018-06-30T18:02:37.268Z,20.10
2018-06-30T18:05:06.345Z,20.00
2018-06-30T18:07:34.832Z,19.80
2018-06-30T18:10:03.416Z,19.60
2018-06-30T18:12:31.954Z,19.50
2018-06-30T18:15:00.746Z,19.40
2018-06-30T18:17:29.254Z,19.20
2018-06-30T18:19:57.908Z,19.20
2018-06-30T18:22:26.686Z,19.10
2018-06-30T18:24:55.261Z,19.00
2018-06-30T18:27:24.028Z,18.80
2018-06-30T18:29:52.666Z,18.80
2018-06-30T18:32:22.223Z,18.70
2018-06-30T18:34:50.905Z,18.50
2018-06-30T18:37:19.548Z,18.50
2018-06-30T18:39:48.187Z,18.40
2018-06-30T18:42:16.846Z,18.40
2018-06-30T18:44:46.323Z,18.30
2018-06-30T18:47:15.217Z,18.30
2018-06-30T18:49:43.852Z,18.10
2018-06-30T18:52:12.711Z,18.10
2018-06-30T18:54:41.781Z,17.90
2018-06-30T18:57:11.689Z,17.90
2018-06-30T18:59:40.307Z,17.90
2018-06-30T19:02:09.025Z,17.90
2018-06-30T19:04:37.756Z,17.70
2018-06-30T19:07:06.341Z,17.70
2018-06-30T19:09:35.198Z,17.50
2018-06-30T19:12:03.782Z,17.40
2018-06-30T19:14:32.400Z,17.40
2018-06-30T19:17:01.085Z,17.30
2018-06-30T19:19:29.720Z,17.30
2018-06-30T19:21:58.415Z,17.20
2018-06-30T19:24:27.021Z,17.10
2018-06-30T19:26:55.747Z,16.90
2018-06-30T19:29:25.711Z,16.90
2018-06-30T19:31:54.476Z,16.70
2018-06-30T19:34:23.155Z,16.70
2018-06-30T19:36:51.792Z,16.50
2018-06-30T19:39:20.407Z,16.50
2018-06-30T19:41:49.454Z,16.40
2018-06-30T19:44:19.297Z,16.40
2018-06-30T19:46:47.995Z,16.30
2018-06-30T19:49:16.602Z,16.20
2018-06-30T19:51:45.311Z,16.10
2018-06-30T19:54:14.164Z,16.00
2018-06-30T19:56:43.073Z,15.90
2018-06-30T19:59:11.787Z,15.90
2018-06-30T20:01:40.360Z,15.80
2018-06-30T20:04:08.947Z,15.70
2018-06-30T20:06:37.618Z,15.70
2018-06-30T20:09:07.754Z,15.60
2018-06-30T20:11:36.878Z,15.60
2018-06-30T20:14:05.691Z,15.50
2018-06-30T20:16:34.272Z,15.40
2018-06-30T20:19:02.826Z,15.40
2018-06-30T20:21:31.479Z,15.30
2018-06-30T20:24:00.074Z,15.20
2018-06-30T20:26:29.017Z,15.10
2018-06-30T20:29:01.263Z,15.10
2018-06-30T20:31:30.596Z,15.00
2018-06-30T20:34:00.247Z,15.00
2018-06-30T20:36:28.850Z,14.90
2018-06-30T20:38:57.720Z,14.80
2018-06-30T20:41:26.330Z,14.80
2018-06-30T20:43:54.940Z,14.70
2018-06-30T20:46:23.770Z,14.60
2018-06-30T20:48:52.958Z,14.60
2018-06-30T20:51:22.551Z,14.50
2018-06-30T20:53:51.128Z,14.40
2018-06-30T20:56:19.984Z,14.30
2018-06-30T20:58:48.578Z,14.30
2018-06-30T21:01:17.131Z,14.20
2018-06-30T21:03:45.698Z,14.20
2018-06-30T21:06:14.496Z,14.20
2018-06-30T21:08:44.025Z,14.20
2018-06-30T21:11:12.525Z,14.00
2018-06-30T21:13:41.338Z,14.00
2018-06-30T21:16:09.877Z,13.90
2018-06-30T21:18:39.041Z,14.00
2018-06-30T21:21:07.627Z,13.90
2018-06-30T21:23:36.139Z,13.80
2018-06-30T21:26:04.935Z,13.70
2018-06-30T21:28:33.814Z,13.70
2018-06-30T21:31:02.820Z,13.70
2018-06-30T21:33:31.361Z,13.70
2018-06-30T21:35:59.896Z,13.70
2018-06-30T21:38:28.437Z,13.70
2018-06-30T21:40:57.740Z,13.60
2018-06-30T21:43:26.279Z,13.60
2018-06-30T21:45:54.896Z,13.60
2018-06-30T21:48:23.525Z,13.60
2018-06-30T21:50:52.092Z,13.50
2018-06-30T21:53:20.692Z,13.50
2018-06-30T21:55:49.272Z,13.50
2018-06-30T21:58:17.921Z,13.40
2018-06-30T22:00:51.784Z,13.20
2018-06-30T22:03:23.599Z,13.20
2018-06-30T22:05:53.764Z,13.20
2018-06-30T22:08:22.410Z,13.10
2018-06-30T22:10:51.228Z,13.10
2018-06-30T22:13:20.219Z,13.10
2018-06-30T22:15:49.360Z,13.00
2018-06-30T22:18:17.974Z,13.00
2018-06-30T22:20:46.575Z,12.90
2018-06-30T22:23:15.248Z,12.80
2018-06-30T22:25:44.243Z,12.70
2018-06-30T22:28:12.923Z,12.70
2018-06-30T22:30:41.862Z,12.60
2018-06-30T22:33:10.531Z,12.60
2018-06-30T22:35:39.185Z,12.50
2018-06-30T22:38:07.768Z,12.50
2018-06-30T22:40:36.434Z,12.40
2018-06-30T22:43:05.346Z,12.30
2018-06-30T22:45:34.615Z,12.30
2018-06-30T22:48:04.177Z,12.30
2018-06-30T22:50:32.687Z,12.20
2018-06-30T22:53:01.237Z,12.10
2018-06-30T22:55:29.863Z,12.10
2018-06-30T22:57:58.562Z,12.10
2018-06-30T23:00:27.243Z,12.00
2018-06-30T23:02:55.822Z,12.00
2018-06-30T23:05:24.371Z,11.90
2018-06-30T23:07:53.259Z,11.80
2018-06-30T23:10:22.568Z,11.70
2018-06-30T23:12:51.147Z,11.60
2018-06-30T23:15:20.024Z,11.50
2018-06-30T23:17:48.551Z,11.40
2018-06-30T23:20:17.103Z,11.40
2018-06-30T23:22:55.179Z,11.30
2018-06-30T23:25:24.920Z,11.30
2018-06-30T23:27:53.778Z,11.30
2018-06-30T23:30:23.605Z,11.30
2018-06-30T23:35:21.994Z,11.20
2018-06-30T23:37:50.702Z,11.10
2018-06-30T23:40:19.557Z,11.10
2018-06-30T23:42:48.441Z,11.00
2018-06-30T23:45:17.686Z,11.00
2018-06-30T23:47:46.457Z,10.90
2018-06-30T23:50:15.663Z,10.80
2018-06-30T23:52:44.229Z,10.80
2018-06-30T23:55:12.865Z,10.80
2018-06-30T23:57:41.817Z,10.70
